Time;durP1;ratioP1;P1;durP2;ratioP2;P2;SDS_P1;SDS_P2;PMS_P1;PMS_P2;Temp;Humidity;BMP_temperature;BMP_pressure;BME280_temperature;BME280_humidity;BME280_pressure;Samples;Min_cycle;Max_cycle;Signal;HPM_P1;HPM_P2
2022/03/11 00:00:59;;;;;;;22.13;10.48;;;;;;;5.69;46.95;101870.88;5021167;28;20037;-66
2022/03/11 00:03:25;;;;;;;23.13;10.82;;;;;;;5.67;47.58;101869.16;5021041;28;20037;-66
2022/03/11 00:05:51;;;;;;;24.52;11.23;;;;;;;5.71;47.39;101860.25;5020851;28;20046;-67
2022/03/11 00:08:17;;;;;;;23.70;11.38;;;;;;;5.52;48.34;101859.00;5020461;28;20060;-66
2022/03/11 00:10:42;;;;;;;27.10;11.00;;;;;;;5.52;48.27;101864.28;5021028;28;20700;-66
2022/03/11 00:13:08;;;;;;;23.00;10.98;;;;;;;5.49;48.46;101856.44;5020988;28;20091;-66
2022/03/11 00:15:34;;;;;;;26.92;11.35;;;;;;;5.56;48.26;101863.28;5019413;28;20049;-66
2022/03/11 00:17:59;;;;;;;23.33;11.15;;;;;;;5.53;48.50;101853.69;5020975;28;20037;-66
2022/03/11 00:20:25;;;;;;;22.42;10.52;;;;;;;5.45;48.55;101859.16;5024662;28;20040;-66
2022/03/11 00:22:52;;;;;;;25.55;11.60;;;;;;;5.45;48.69;101856.50;5040581;28;20047;-66
2022/03/11 00:25:20;;;;;;;21.70;11.00;;;;;;;5.43;48.79;101857.47;5040555;28;20040;-66
2022/03/11 00:27:46;;;;;;;24.52;12.25;;;;;;;5.41;48.80;101860.13;5040498;28;20553;-67
2022/03/11 00:30:12;;;;;;;21.95;11.10;;;;;;;5.42;48.77;101866.28;5040495;28;20040;-66
2022/03/11 00:32:38;;;;;;;26.75;11.70;;;;;;;5.35;49.49;101855.00;5040637;28;20434;-66
2022/03/11 00:35:09;;;;;;;23.63;11.77;;;;;;;5.31;49.50;101863.91;5040453;28;20060;-66
2022/03/11 00:37:35;;;;;;;22.10;10.43;;;;;;;5.26;49.49;101860.53;5038735;28;20055;-66
2022/03/11 00:40:00;;;;;;;24.13;11.07;;;;;;;5.19;49.89;101862.47;5040262;28;20041;-67
2022/03/11 00:42:27;;;;;;;22.13;11.05;;;;;;;5.18;50.05;101863.38;5040143;28;20059;-67
2022/03/11 00:44:52;;;;;;;22.52;11.00;;;;;;;5.15;49.87;101858.16;5040350;28;20056;-66
2022/03/11 00:47:18;;;;;;;23.27;11.30;;;;;;;5.18;49.72;101854.56;5038948;28;20041;-66
2022/03/11 00:49:43;;;;;;;23.25;11.75;;;;;;;5.17;49.74;101858.09;5040325;28;20037;-67
2022/03/11 00:52:08;;;;;;;23.23;11.65;;;;;;;5.14;50.28;101853.78;5040715;28;20759;-66
2022/03/11 00:54:34;;;;;;;23.65;10.90;;;;;;;5.12;50.07;101847.66;5040163;28;20608;-66
2022/03/11 00:56:59;;;;;;;23.15;10.60;;;;;;;5.12;50.37;101849.41;5040219;28;20443;-66
2022/03/11 00:59:24;;;;;;;24.70;11.85;;;;;;;5.05;50.83;101850.47;5040127;28;20041;-66
2022/03/11 01:01:50;;;;;;;26.27;11.43;;;;;;;4.98;51.07;101852.41;5040137;28;20048;-66
2022/03/11 01:04:15;;;;;;;22.83;11.13;;;;;;;4.96;51.05;101846.28;5040229;28;20167;-66
2022/03/11 01:06:41;;;;;;;21.70;11.32;;;;;;;4.97;51.16;101839.22;5042917;28;20043;-66
2022/03/11 01:09:07;;;;;;;26.58;12.05;;;;;;;4.97;51.23;101839.22;5044086;28;20133;-66
2022/03/11 01:11:33;;;;;;;28.92;11.32;;;;;;;4.84;51.41;101841.31;5043663;28;20041;-66
2022/03/11 01:14:17;;;;;;;24.52;11.55;;;;;;;4.85;51.60;101835.97;5043066;28;20122;-66
2022/03/11 01:16:42;;;;;;;23.98;11.82;;;;;;;4.78;51.61;101834.38;5044069;28;20547;-66
2022/03/11 01:19:08;;;;;;;23.33;10.65;;;;;;;4.77;52.25;101824.72;5044069;28;20459;-66
2022/03/11 01:21:33;;;;;;;27.63;11.45;;;;;;;4.77;52.21;101824.72;5043920;28;20792;-66
2022/03/11 01:23:59;;;;;;;17.90;9.48;;;;;;;4.85;51.90;101822.75;5043896;28;20065;-66
2022/03/11 01:26:24;;;;;;;22.45;11.57;;;;;;;4.77;51.76;101822.09;5044030;28;20390;-66
2022/03/11 01:28:50;;;;;;;24.98;11.63;;;;;;;4.70;52.37;101822.25;5044046;28;20029;-66
2022/03/11 01:31:17;;;;;;;23.85;12.00;;;;;;;4.74;52.15;101811.59;5043963;28;20534;-67
2022/03/11 01:33:43;;;;;;;21.58;10.75;;;;;;;4.74;52.01;101811.59;5044216;28;20045;-66
2022/03/11 01:36:10;;;;;;;25.40;11.18;;;;;;;4.75;52.55;101812.44;5042677;28;20043;-66
2022/03/11 01:38:36;;;;;;;20.75;11.00;;;;;;;4.64;52.66;101804.78;5045600;28;20025;-66
2022/03/11 01:41:02;;;;;;;23.13;12.52;;;;;;;4.61;52.95;101804.84;5043701;28;20547;-66
2022/03/11 01:43:29;;;;;;;25.75;12.52;;;;;;;4.61;52.81;101797.78;5043803;28;20501;-66
2022/03/11 01:45:54;;;;;;;21.83;11.38;;;;;;;4.58;53.06;101797.00;5043803;28;20041;-65
2022/03/11 01:48:20;;;;;;;29.13;12.35;;;;;;;4.51;52.78;101796.25;5043477;28;20041;-66
2022/03/11 01:50:45;;;;;;;22.60;10.88;;;;;;;4.53;52.86;101794.47;5043479;28;20052;-66
2022/03/11 01:53:13;;;;;;;25.42;12.05;;;;;;;4.50;52.70;101796.28;5041789;28;20040;-66
2022/03/11 01:55:40;;;;;;;22.77;11.50;;;;;;;4.51;53.03;101785.69;5043921;28;20052;-65
2022/03/11 01:58:07;;;;;;;22.70;10.60;;;;;;;4.46;53.25;101784.06;5043405;28;20156;-65
2022/03/11 02:00:39;;;;;;;25.02;12.05;;;;;;;4.41;53.21;101785.03;5043372;28;20057;-66
2022/03/11 02:03:05;;;;;;;23.73;11.15;;;;;;;4.28;53.33;101780.94;5041560;28;20053;-66
2022/03/11 02:05:31;;;;;;;18.70;10.60;;;;;;;4.32;53.65;101776.47;5043455;28;20087;-68
2022/03/11 02:08:01;;;;;;;23.98;11.40;;;;;;;4.31;53.24;101770.28;5042543;28;20915;-66
2022/03/11 02:10:27;;;;;;;22.75;10.98;;;;;;;4.28;53.42;101772.16;5044001;28;20045;-66
2022/03/11 02:12:52;;;;;;;23.63;11.25;;;;;;;4.19;53.90;101772.34;5043662;28;20049;-66
2022/03/11 02:15:18;;;;;;;24.73;11.90;;;;;;;4.15;53.74;101763.63;5043643;28;20041;-66
2022/03/11 02:17:43;;;;;;;23.88;11.15;;;;;;;4.19;53.92;101756.53;5042890;28;20045;-65
2022/03/11 02:20:09;;;;;;;27.17;12.93;;;;;;;4.12;54.05;101761.06;5043957;28;20037;-67
2022/03/11 02:22:38;;;;;;;18.58;9.68;;;;;;;4.13;53.60;101766.31;5042775;28;20778;-67
2022/03/11 02:25:08;;;;;;;24.80;10.98;;;;;;;4.09;54.16;101759.34;5044159;28;20044;-66
2022/03/11 02:27:36;;;;;;;24.48;11.55;;;;;;;4.03;54.21;101756.84;5043555;28;20047;-66
2022/03/11 02:30:10;;;;;;;24.23;10.98;;;;;;;4.01;54.56;101749.84;5043539;28;20569;-65
2022/03/11 02:32:36;;;;;;;22.73;11.77;;;;;;;3.99;54.64;101747.25;5043420;28;20049;-66
2022/03/11 02:35:01;;;;;;;20.85;11.52;;;;;;;4.00;53.93;101748.13;5043229;28;20889;-66
2022/03/11 02:37:27;;;;;;;29.10;12.43;;;;;;;3.94;54.44;101741.22;5043693;28;20051;-66
2022/03/11 02:39:55;;;;;;;25.85;11.50;;;;;;;3.92;54.59;101734.25;5043164;28;20037;-67
2022/03/11 02:42:20;;;;;;;26.20;12.90;;;;;;;3.94;54.81;101735.06;5043351;28;20076;-66
2022/03/11 02:44:46;;;;;;;24.00;11.57;;;;;;;3.87;54.39;101736.97;5043144;28;20049;-65
2022/03/11 02:47:11;;;;;;;23.55;10.98;;;;;;;3.84;55.17;101735.25;5042986;28;20033;-66
2022/03/11 02:49:36;;;;;;;23.30;11.45;;;;;;;3.84;54.66;101727.34;5042607;28;20087;-66
2022/03/11 02:52:02;;;;;;;23.40;12.30;;;;;;;3.79;54.73;101733.63;5042559;28;20553;-66
2022/03/11 02:54:28;;;;;;;24.65;11.32;;;;;;;3.82;55.14;101728.31;5042865;28;20083;-66
2022/03/11 02:56:53;;;;;;;30.75;11.45;;;;;;;3.91;54.45;101722.81;5042773;28;20060;-66
2022/03/11 02:59:18;;;;;;;19.90;10.43;;;;;;;3.78;54.64;101724.84;5043451;28;20768;-66
2022/03/11 03:01:44;;;;;;;34.05;11.15;;;;;;;3.83;54.53;101725.63;5042859;28;20087;-66
2022/03/11 03:04:11;;;;;;;21.48;11.60;;;;;;;3.80;54.79;101719.53;5043781;28;20161;-67
2022/03/11 03:06:36;;;;;;;22.40;10.75;;;;;;;3.77;55.35;101717.84;5043833;28;20033;-66
2022/03/11 03:09:02;;;;;;;20.50;10.57;;;;;;;3.79;55.14;101720.44;5046127;28;20574;-67
2022/03/11 03:11:27;;;;;;;23.67;10.50;;;;;;;3.85;54.33;101717.66;5044424;28;20098;-67
2022/03/11 03:13:53;;;;;;;26.63;12.88;;;;;;;3.74;55.38;101722.31;5035775;28;20037;-66
2022/03/11 03:16:18;;;;;;;26.92;11.50;;;;;;;3.77;54.75;101716.97;5043160;28;20120;-67
2022/03/11 03:18:44;;;;;;;26.02;11.27;;;;;;;3.84;54.88;101708.03;5042517;28;20051;-66
2022/03/11 03:21:11;;;;;;;22.33;10.25;;;;;;;3.74;55.03;101707.34;5031796;28;20030;-66
2022/03/11 03:23:36;;;;;;;22.15;11.77;;;;;;;3.81;54.52;101708.06;5023627;28;20057;-66
2022/03/11 03:26:01;;;;;;;23.48;12.30;;;;;;;3.77;55.15;101711.69;5004985;28;20095;-67
2022/03/11 03:28:28;;;;;;;23.58;11.27;;;;;;;3.74;54.77;101707.34;5022754;28;20073;-66
2022/03/11 03:30:54;;;;;;;20.30;10.07;;;;;;;3.69;54.96;101703.06;5022627;28;20045;-66
2022/03/11 03:33:23;;;;;;;23.65;11.98;;;;;;;3.62;55.52;101711.13;5022469;28;20635;-66
2022/03/11 03:35:49;;;;;;;25.83;10.77;;;;;;;3.60;55.79;101706.75;5022308;28;20049;-66
2022/03/11 03:38:18;;;;;;;23.10;11.35;;;;;;;3.51;55.73;101702.53;5022176;28;20119;-66
2022/03/11 03:40:44;;;;;;;19.20;10.43;;;;;;;3.59;55.83;101702.38;5022008;28;20049;-66
2022/03/11 03:43:13;;;;;;;19.77;10.23;;;;;;;3.64;55.55;101703.16;5021956;28;20037;-66
2022/03/11 03:45:40;;;;;;;30.17;13.45;;;;;;;3.58;55.66;101698.88;5022116;28;20045;-66
2022/03/11 03:48:08;;;;;;;21.33;11.13;;;;;;;3.67;55.77;101695.19;5020133;28;20045;-66
2022/03/11 03:50:33;;;;;;;20.48;10.80;;;;;;;3.71;55.48;101695.97;5022146;28;20041;-66
2022/03/11 03:52:59;;;;;;;22.90;10.90;;;;;;;3.62;55.91;101703.22;5021815;28;20856;-66
2022/03/11 03:55:24;;;;;;;23.52;11.75;;;;;;;3.63;55.92;101699.66;5021748;28;20046;-66
2022/03/11 03:57:50;;;;;;;29.33;10.30;;;;;;;3.63;55.71;101694.38;5021536;28;20313;-66
2022/03/11 04:00:16;;;;;;;22.55;10.88;;;;;;;3.63;55.25;101697.03;5021010;28;20144;-66
2022/03/11 04:02:50;;;;;;;28.10;11.98;;;;;;;3.72;55.59;101695.97;5021162;28;20041;-66
2022/03/11 04:05:16;;;;;;;20.77;10.60;;;;;;;3.66;55.70;101696.06;5021300;28;20052;-66
2022/03/11 04:07:43;;;;;;;20.35;10.02;;;;;;;3.71;55.20;101685.44;5021834;28;20052;-66
2022/03/11 04:10:10;;;;;;;19.77;10.63;;;;;;;3.61;55.42;101695.31;5021433;28;20038;-66
2022/03/11 04:12:36;;;;;;;24.58;11.00;;;;;;;3.61;56.12;101690.03;5021161;28;20040;-67
2022/03/11 04:15:03;;;;;;;19.20;10.00;;;;;;;3.61;55.41;101688.28;5020803;28;20034;-66
2022/03/11 04:17:29;;;;;;;23.95;10.60;;;;;;;3.50;56.60;101682.34;5019081;28;20765;-66
2022/03/11 04:19:54;;;;;;;20.48;9.70;;;;;;;3.53;55.72;101684.06;5022531;28;20033;-66
2022/03/11 04:22:19;;;;;;;22.50;10.30;;;;;;;3.49;56.52;101677.97;5040533;28;20041;-66
2022/03/11 04:24:45;;;;;;;19.92;10.32;;;;;;;3.49;56.22;101674.47;5040590;28;20068;-66
2022/03/11 04:27:11;;;;;;;25.67;10.52;;;;;;;3.50;56.39;101676.22;5040961;28;20304;-69
2022/03/11 04:29:37;;;;;;;19.02;10.43;;;;;;;3.44;56.08;101671.06;5040240;28;20088;-67
2022/03/11 04:32:03;;;;;;;23.02;11.02;;;;;;;3.44;55.99;101671.06;5040709;28;20094;-66
2022/03/11 04:34:29;;;;;;;25.55;11.02;;;;;;;3.45;56.49;101672.78;5040868;28;20044;-66
2022/03/11 04:36:56;;;;;;;26.20;10.90;;;;;;;3.41;56.61;101676.38;5040825;28;20045;-67
2022/03/11 04:39:23;;;;;;;24.13;11.43;;;;;;;3.38;57.05;101669.44;5038946;28;20509;-67
2022/03/11 04:41:49;;;;;;;20.15;10.18;;;;;;;3.30;56.54;101674.84;5040332;28;20033;-70
2022/03/11 04:44:14;;;;;;;27.40;12.48;;;;;;;3.35;57.19;101667.72;5040684;28;20080;-66
2022/03/11 04:46:40;;;;;;;21.83;10.55;;;;;;;3.28;57.03;101668.75;5040516;28;20077;-72
2022/03/11 04:49:05;;;;;;;22.08;10.18;;;;;;;3.29;56.73;101669.59;5040347;28;20052;-66
2022/03/11 04:51:31;;;;;;;25.65;10.70;;;;;;;3.24;56.95;101666.19;5040376;28;20048;-66
2022/03/11 04:53:56;;;;;;;24.40;10.10;;;;;;;3.29;56.75;101673.09;5040385;28;20037;-66
2022/03/11 04:56:22;;;;;;;22.08;10.85;;;;;;;3.18;57.36;101671.59;5038667;28;20590;-66
2022/03/11 04:58:47;;;;;;;21.85;11.25;;;;;;;3.20;57.02;101665.38;5038102;28;20037;-68
2022/03/11 05:01:13;;;;;;;24.23;10.77;;;;;;;3.19;57.52;101668.06;5023406;28;20463;-67
2022/03/11 05:03:38;;;;;;;27.42;11.40;;;;;;;3.25;56.65;101666.16;5020785;28;20041;-67
2022/03/11 05:06:05;;;;;;;21.55;9.82;;;;;;;3.22;57.46;101665.38;5020335;28;20045;-67
2022/03/11 05:08:30;;;;;;;21.45;11.30;;;;;;;3.34;56.43;101673.03;5020671;28;20038;-68
2022/03/11 05:10:55;;;;;;;19.77;10.82;;;;;;;3.23;57.01;101669.75;5020411;28;20087;-67
2022/03/11 05:13:22;;;;;;;28.67;11.88;;;;;;;3.14;57.85;101668.13;5021649;28;20033;-67
2022/03/11 05:15:48;;;;;;;22.00;10.60;;;;;;;3.15;57.03;101663.72;5020299;28;20037;-67
2022/03/11 05:18:13;;;;;;;23.10;10.70;;;;;;;3.07;57.29;101677.94;5018736;28;20095;-67
2022/03/11 05:20:39;;;;;;;24.00;11.50;;;;;;;3.08;57.22;101676.16;5025870;28;20404;-68
2022/03/11 05:23:04;;;;;;;28.83;12.07;;;;;;;2.97;58.32;101676.38;5039669;28;20100;-69
2022/03/11 05:25:30;;;;;;;24.13;12.30;;;;;;;3.02;57.80;101674.53;5039663;28;20074;-67
2022/03/11 05:27:56;;;;;;;21.65;12.10;;;;;;;2.98;58.34;101671.97;5027837;28;20538;-67
2022/03/11 05:30:21;;;;;;;23.33;10.65;;;;;;;2.95;57.99;101670.25;5020071;28;20051;-67
2022/03/11 05:32:47;;;;;;;19.35;10.90;;;;;;;2.85;58.72;101666.91;5018500;28;20143;-67
2022/03/11 05:35:14;;;;;;;27.48;12.15;;;;;;;2.89;58.34;101666.88;5020118;28;20048;-66
2022/03/11 05:37:40;;;;;;;29.42;12.38;;;;;;;2.88;58.18;101662.50;5018479;28;20483;-67
2022/03/11 05:40:06;;;;;;;25.40;10.93;;;;;;;2.82;58.81;101664.34;5018497;28;20048;-67
2022/03/11 05:42:31;;;;;;;29.60;11.32;;;;;;;2.82;58.78;101663.50;5020233;28;20041;-67
2022/03/11 05:44:58;;;;;;;26.38;11.75;;;;;;;2.79;58.42;101660.91;5020004;28;20071;-67
2022/03/11 05:47:23;;;;;;;22.50;10.55;;;;;;;2.77;58.32;101652.16;5020138;28;20052;-67
2022/03/11 05:49:49;;;;;;;18.48;10.38;;;;;;;2.73;58.75;101658.38;5017939;28;20641;-67
2022/03/11 05:52:14;;;;;;;26.65;11.32;;;;;;;2.75;58.30;101664.47;5019259;28;20557;-67
2022/03/11 05:54:39;;;;;;;23.00;10.77;;;;;;;2.70;58.82;101661.06;5024839;28;20041;-67
2022/03/11 05:57:05;;;;;;;22.23;11.32;;;;;;;2.69;59.24;101656.69;5025045;28;20043;-67
2022/03/11 05:59:32;;;;;;;24.70;10.15;;;;;;;2.60;59.44;101648.03;5025077;28;20847;-67
2022/03/11 06:01:58;;;;;;;24.50;10.75;;;;;;;2.69;58.82;101648.78;5030737;28;20040;-67
2022/03/11 06:04:24;;;;;;;22.65;10.73;;;;;;;2.64;58.64;101654.13;5038642;28;20784;-67
2022/03/11 06:06:49;;;;;;;24.02;11.63;;;;;;;2.64;58.71;101651.50;5036075;28;20148;-67
2022/03/11 06:09:15;;;;;;;24.08;11.30;;;;;;;2.61;59.12;101648.94;5043412;28;20045;-67
2022/03/11 06:11:40;;;;;;;24.50;12.07;;;;;;;2.60;59.83;101644.53;5043625;28;20037;-67
2022/03/11 06:14:06;;;;;;;24.85;11.88;;;;;;;2.65;58.92;101647.09;5036865;28;20538;-67
2022/03/11 06:16:32;;;;;;;36.95;12.40;;;;;;;2.63;59.13;101641.88;5042295;28;20045;-67
2022/03/11 06:18:58;;;;;;;26.30;12.52;;;;;;;2.70;59.20;101648.75;5043672;28;20838;-67
2022/03/11 06:21:23;;;;;;;20.55;10.65;;;;;;;2.73;58.68;101646.06;5029603;28;20050;-69
2022/03/11 06:23:48;;;;;;;26.33;12.52;;;;;;;2.79;58.67;101639.81;5023031;28;20095;-67
2022/03/11 06:26:14;;;;;;;29.48;11.95;;;;;;;2.85;58.12;101650.25;5023423;28;20046;-67
2022/03/11 06:28:39;;;;;;;23.80;11.00;;;;;;;2.89;58.79;101654.56;5023541;28;20042;-67
2022/03/11 06:31:08;;;;;;;37.15;12.23;;;;;;;2.87;58.16;101659.00;5023168;28;20042;-67
2022/03/11 06:33:33;;;;;;;26.70;11.55;;;;;;;2.93;57.98;101648.34;5021585;28;20153;-67
2022/03/11 06:35:58;;;;;;;24.58;12.50;;;;;;;3.05;57.47;101652.50;5021563;28;20037;-67
2022/03/11 06:38:24;;;;;;;26.33;11.70;;;;;;;3.11;57.54;101652.38;5022232;28;20487;-67
2022/03/11 06:40:50;;;;;;;27.55;10.98;;;;;;;3.23;57.74;101652.16;5022973;28;20052;-67
2022/03/11 06:43:17;;;;;;;23.67;12.10;;;;;;;3.33;56.83;101652.84;5023171;28;20080;-67
2022/03/11 06:45:43;;;;;;;28.15;13.32;;;;;;;3.47;56.76;101647.28;5022978;28;20077;-68
2022/03/11 06:48:08;;;;;;;25.48;10.68;;;;;;;3.74;55.77;101644.03;5022854;28;20041;-67
2022/03/11 06:50:34;;;;;;;23.83;11.38;;;;;;;3.98;54.58;101639.97;5022651;28;20123;-68
2022/03/11 06:52:59;;;;;;;25.60;12.25;;;;;;;4.29;53.57;101637.47;5022303;28;20044;-67
2022/03/11 06:55:24;;;;;;;25.83;11.30;;;;;;;4.46;53.24;101634.41;5021549;28;20053;-67
2022/03/11 06:57:50;;;;;;;23.25;11.48;;;;;;;4.75;52.48;101640.72;5019925;28;20041;-67
2022/03/11 07:00:15;;;;;;;22.42;11.93;;;;;;;4.96;51.46;101639.28;5036512;28;20037;-67
2022/03/11 07:02:43;;;;;;;26.98;12.27;;;;;;;5.20;50.53;101639.47;5041921;28;20040;-67
2022/03/11 07:05:09;;;;;;;30.80;13.88;;;;;;;5.59;49.63;101633.06;5041097;28;20803;-67
2022/03/11 07:07:35;;;;;;;21.63;10.70;;;;;;;5.57;49.52;101632.22;5040936;28;20103;-67
2022/03/11 07:10:02;;;;;;;23.33;10.60;;;;;;;5.76;49.51;101627.25;5039742;28;20057;-67
2022/03/11 07:12:29;;;;;;;24.55;11.40;;;;;;;6.00;48.56;101628.31;5039317;28;20474;-67
2022/03/11 07:14:54;;;;;;;26.45;11.43;;;;;;;6.27;48.70;101630.03;5040818;28;20241;-67
2022/03/11 07:17:19;;;;;;;25.23;12.25;;;;;;;6.39;48.44;101627.00;5040665;28;20808;-67
2022/03/11 07:19:45;;;;;;;25.17;11.60;;;;;;;6.54;47.23;101630.94;5040467;28;20045;-66
2022/03/11 07:22:10;;;;;;;27.23;11.88;;;;;;;6.47;46.66;101624.94;5036899;28;20083;-67
2022/03/11 07:24:36;;;;;;;24.38;11.48;;;;;;;6.55;47.05;101629.16;5040554;28;20049;-67
2022/03/11 07:27:01;;;;;;;25.13;12.43;;;;;;;6.91;46.43;101634.94;5040799;28;20044;-67
2022/03/11 07:29:27;;;;;;;19.45;11.07;;;;;;;6.97;45.70;101634.72;5040679;28;20152;-64
2022/03/11 07:31:52;;;;;;;25.15;11.43;;;;;;;6.98;45.60;101637.34;5040844;28;20049;-68
2022/03/11 07:34:18;;;;;;;22.77;11.93;;;;;;;7.03;44.74;101626.56;5040906;28;20041;-67
2022/03/11 07:36:43;;;;;;;25.15;12.38;;;;;;;7.11;45.09;101620.97;5041038;28;20041;-67
2022/03/11 07:39:10;;;;;;;37.63;13.43;;;;;;;7.27;44.98;101622.13;5040956;28;20044;-68
2022/03/11 07:41:36;;;;;;;23.60;11.93;;;;;;;7.37;44.14;101631.47;5039633;28;20660;-67
2022/03/11 07:44:02;;;;;;;26.05;13.30;;;;;;;7.25;45.16;101635.47;5040893;28;20045;-67
2022/03/11 07:46:29;;;;;;;26.33;12.13;;;;;;;7.63;44.81;101629.63;5040605;28;20039;-67
2022/03/11 07:48:55;;;;;;;27.83;12.18;;;;;;;7.57;44.27;101630.72;5040834;28;20266;-68
2022/03/11 07:51:21;;;;;;;24.40;12.57;;;;;;;7.47;43.85;101643.47;5040703;28;20117;-66
2022/03/11 07:53:47;;;;;;;22.60;12.18;;;;;;;7.64;44.53;101637.56;5040692;28;20123;-67
2022/03/11 07:56:14;;;;;;;24.90;11.98;;;;;;;7.92;43.59;101642.63;5040749;28;20045;-67
2022/03/11 07:58:41;;;;;;;23.40;11.25;;;;;;;7.83;44.34;101645.69;5038980;28;20045;-64
2022/03/11 08:01:10;;;;;;;24.70;12.05;;;;;;;7.52;44.12;101630.03;5040930;28;20486;-67
2022/03/11 08:03:38;;;;;;;27.90;13.48;;;;;;;7.49;44.24;101636.34;5041173;28;20045;-67
2022/03/11 08:06:05;;;;;;;27.80;12.48;;;;;;;7.44;44.66;101633.00;5041825;28;20518;-67
2022/03/11 08:08:31;;;;;;;25.30;12.30;;;;;;;7.57;46.05;101629.88;5041546;28;20081;-67
2022/03/11 08:10:57;;;;;;;21.60;11.45;;;;;;;7.30;45.55;101624.69;5041259;28;20390;-65
2022/03/11 08:13:23;;;;;;;22.92;12.68;;;;;;;7.25;45.83;101630.16;5040970;28;20044;-67
2022/03/11 08:15:49;;;;;;;25.20;12.73;;;;;;;7.45;45.49;101616.16;5039641;28;20133;-71
2022/03/11 08:18:15;;;;;;;25.40;12.30;;;;;;;7.35;46.00;101616.56;5038632;28;20106;-69
2022/03/11 08:20:40;;;;;;;26.90;13.45;;;;;;;7.35;46.40;101616.56;5036919;28;20556;-67
2022/03/11 08:23:07;;;;;;;28.92;14.07;;;;;;;7.35;45.64;101605.94;5040493;28;20041;-68
2022/03/11 08:25:36;;;;;;;29.98;13.35;;;;;;;7.48;46.50;101605.44;5040281;28;20040;-67
2022/03/11 08:28:04;;;;;;;30.88;13.50;;;;;;;7.27;44.94;101601.78;5039883;28;20048;-66
2022/03/11 08:30:31;;;;;;;28.65;13.95;;;;;;;7.54;46.53;101614.94;5040064;28;20051;-67
2022/03/11 08:32:57;;;;;;;29.27;12.45;;;;;;;7.45;44.98;101612.63;5039497;28;20422;-66
2022/03/11 08:35:24;;;;;;;32.80;14.73;;;;;;;7.65;45.04;101593.28;5039842;28;20045;-66
2022/03/11 08:37:50;;;;;;;31.38;14.13;;;;;;;7.85;45.94;101587.19;5039733;28;20604;-67
2022/03/11 08:40:17;;;;;;;33.22;14.07;;;;;;;7.69;45.17;101585.16;5038302;28;20128;-67
2022/03/11 08:42:43;;;;;;;27.52;13.35;;;;;;;7.87;44.51;101572.91;5040007;28;20072;-66
2022/03/11 08:45:10;;;;;;;34.38;14.52;;;;;;;7.85;44.29;101576.56;5040122;28;20136;-67
2022/03/11 08:47:36;;;;;;;30.40;14.25;;;;;;;7.84;44.78;101575.72;5040186;28;20156;-66
2022/03/11 08:50:03;;;;;;;26.70;13.82;;;;;;;8.04;44.70;101588.19;5040157;28;20041;-67
2022/03/11 08:52:30;;;;;;;25.98;12.68;;;;;;;8.04;43.24;101588.19;5041070;28;20047;-66
2022/03/11 08:54:56;;;;;;;27.20;13.65;;;;;;;8.21;43.20;101579.50;5040180;28;20041;-67
2022/03/11 08:57:21;;;;;;;34.85;15.40;;;;;;;8.25;43.54;101576.66;5040212;28;20048;-66
2022/03/11 08:59:47;;;;;;;38.28;14.75;;;;;;;8.32;43.25;101579.91;5040604;28;20073;-67
2022/03/11 09:02:15;;;;;;;29.73;15.15;;;;;;;8.29;43.52;101572.94;5041250;28;20048;-67
2022/03/11 09:04:41;;;;;;;28.25;13.75;;;;;;;8.51;43.00;101580.91;5041079;28;20041;-66
2022/03/11 09:07:07;;;;;;;29.10;14.57;;;;;;;8.61;42.91;101569.88;5040896;28;20041;-67
2022/03/11 09:09:33;;;;;;;33.80;14.90;;;;;;;8.77;42.89;101571.78;5034452;28;20604;-66
2022/03/11 09:12:00;;;;;;;29.02;13.88;;;;;;;8.66;42.68;101571.41;5037224;28;20045;-67
2022/03/11 09:14:25;;;;;;;27.90;14.60;;;;;;;8.85;42.79;101562.63;5040353;28;20037;-66
2022/03/11 09:16:51;;;;;;;28.02;14.30;;;;;;;8.70;42.41;101559.69;5039691;28;20580;-67
2022/03/11 09:19:16;;;;;;;29.50;14.80;;;;;;;8.93;42.57;101561.31;5040089;28;20044;-66
2022/03/11 09:21:42;;;;;;;31.42;14.32;;;;;;;8.78;41.58;101551.38;5034570;28;20141;-66
2022/03/11 09:24:08;;;;;;;31.85;14.88;;;;;;;8.98;41.08;101554.00;5039929;28;20052;-67
2022/03/11 09:26:33;;;;;;;27.45;14.45;;;;;;;8.86;41.95;101548.38;5040688;28;20137;-66
2022/03/11 09:28:59;;;;;;;31.20;15.38;;;;;;;8.98;41.98;101551.34;5044115;28;20055;-66
2022/03/11 09:31:24;;;;;;;29.55;14.70;;;;;;;9.43;41.52;101538.63;5042492;28;20391;-66
2022/03/11 09:33:50;;;;;;;28.23;14.18;;;;;;;9.37;41.82;101538.94;5044057;28;20044;-67
2022/03/11 09:36:15;;;;;;;31.63;15.38;;;;;;;9.20;42.32;101537.06;5038130;28;20036;-67
2022/03/11 09:38:41;;;;;;;30.25;15.80;;;;;;;9.42;42.15;101537.78;5024215;28;20042;-66
2022/03/11 09:41:08;;;;;;;28.30;13.73;;;;;;;9.72;40.84;101535.44;5024426;28;20049;-66
2022/03/11 09:43:36;;;;;;;32.65;14.70;;;;;;;9.66;41.41;101541.06;5024382;28;20422;-67
2022/03/11 09:46:02;;;;;;;32.03;13.80;;;;;;;9.64;40.94;101536.75;5033289;28;20124;-67
2022/03/11 09:48:28;;;;;;;37.58;15.25;;;;;;;9.46;41.42;101534.03;5047675;28;20056;-67
2022/03/11 09:50:54;;;;;;;26.00;13.95;;;;;;;9.49;41.58;101533.03;5047663;28;20041;-68
2022/03/11 09:53:19;;;;;;;28.92;14.93;;;;;;;9.27;40.83;101530.50;5045154;28;20106;-67
2022/03/11 09:55:45;;;;;;;31.40;14.65;;;;;;;9.49;40.59;101525.06;5045893;28;20084;-67
2022/03/11 09:58:11;;;;;;;32.75;14.57;;;;;;;9.66;40.67;101526.91;5043392;28;20029;-67
2022/03/11 10:00:37;;;;;;;28.80;14.52;;;;;;;9.41;40.44;101520.09;5027283;28;20080;-67
2022/03/11 10:03:03;;;;;;;27.10;14.90;;;;;;;9.61;41.23;101513.81;5024090;28;20079;-67
2022/03/11 10:05:47;;;;;;;33.83;14.40;;;;;;;9.73;40.77;101510.53;5022273;28;20536;-67
2022/03/11 10:08:16;;;;;;;31.58;14.98;;;;;;;9.81;41.33;101512.84;5023647;28;20041;-67
2022/03/11 10:10:45;;;;;;;28.40;14.05;;;;;;;9.95;40.43;101509.50;5024110;28;20417;-68
2022/03/11 10:13:12;;;;;;;38.00;15.63;;;;;;;10.35;40.45;101505.69;5023346;28;20041;-67
2022/03/11 10:15:40;;;;;;;27.05;14.73;;;;;;;10.63;40.42;101507.75;5023065;28;20047;-67
2022/03/11 10:18:09;;;;;;;35.95;15.73;;;;;;;10.68;40.27;101513.72;5023472;28;20127;-66
2022/03/11 10:20:35;;;;;;;32.25;16.42;;;;;;;10.72;40.89;101511.75;5027140;28;20052;-67
2022/03/11 10:23:07;;;;;;;29.88;14.32;;;;;;;10.33;40.04;101512.88;5043329;28;20052;-68
2022/03/11 10:25:32;;;;;;;28.83;15.45;;;;;;;10.87;41.42;101506.44;5043015;28;20041;-67
2022/03/11 10:28:03;;;;;;;29.88;14.50;;;;;;;10.77;39.76;101504.38;5041202;28;20094;-67
2022/03/11 10:30:31;;;;;;;32.50;15.63;;;;;;;10.57;39.77;101505.41;5042338;28;20112;-66
2022/03/11 10:32:57;;;;;;;39.80;15.88;;;;;;;10.74;40.09;101508.03;5043844;28;20048;-66
2022/03/11 10:35:40;;;;;;;31.00;15.57;;;;;;;10.77;40.21;101501.69;5042649;28;20044;-66
2022/03/11 10:38:07;;;;;;;24.95;14.23;;;;;;;10.72;40.23;101506.41;5043693;28;20040;-66
2022/03/11 10:40:35;;;;;;;31.40;15.35;;;;;;;11.27;39.08;101498.94;5044105;28;20105;-66
2022/03/11 10:43:12;;;;;;;27.35;15.27;;;;;;;11.10;40.67;101499.88;5043855;28;20203;-66
2022/03/11 10:45:52;;;;;;;30.02;14.27;;;;;;;11.03;40.01;101497.63;5043632;28;20811;-66
2022/03/11 10:48:39;;;;;;;36.58;15.57;;;;;;;10.81;39.92;101498.78;5043570;28;20041;-66
2022/03/11 10:51:09;;;;;;;31.77;15.02;;;;;;;10.82;38.89;101487.16;5043493;28;20078;-66
2022/03/11 10:53:38;;;;;;;27.08;14.30;;;;;;;11.30;38.91;101487.22;5042225;28;20048;-66
2022/03/11 10:56:07;;;;;;;30.20;15.25;;;;;;;11.08;39.10;101477.72;5022269;28;20157;-66
2022/03/11 10:58:33;;;;;;;31.73;15.80;;;;;;;11.41;39.43;101484.81;5022414;28;20035;-66
2022/03/11 11:00:58;;;;;;;29.85;15.60;;;;;;;11.34;39.17;101478.06;5041703;28;20784;-66
2022/03/11 11:03:24;;;;;;;33.42;16.08;;;;;;;11.74;40.47;101476.66;5041938;28;20060;-66
2022/03/11 11:05:50;;;;;;;29.50;15.60;;;;;;;11.80;38.57;101480.81;5041872;28;20041;-66
2022/03/11 11:08:17;;;;;;;32.65;15.40;;;;;;;11.57;39.06;101474.97;5041997;28;20041;-67
2022/03/11 11:10:45;;;;;;;30.70;14.38;;;;;;;11.69;38.84;101473.38;5041696;28;20539;-67
2022/03/11 11:13:11;;;;;;;32.92;15.55;;;;;;;11.43;39.13;101468.69;5041775;28;20577;-69